Time;durP1;ratioP1;P1;durP2;ratioP2;P2;SDS_P1;SDS_P2;PMS_P1;PMS_P2;Temp;Humidity;BMP_temperature;BMP_pressure;BME280_temperature;BME280_humidity;BME280_pressure;Samples;Min_cycle;Max_cycle;Signal;HPM_P1;HPM_P2
2022/02/17 00:04:10;;;;;;;0.80;0.63;;;22.20;53.40;;;;;;6138304;23;20389;-84
2022/02/17 00:06:54;;;;;;;;;;;;;;;;;;;;;
2022/02/17 00:09:34;;;;;;;;;;;;;;;;;;;;;
2022/02/17 00:12:06;;;;;;;1.40;0.90;;;22.20;53.40;;;;;;6150355;23;20369;-83
2022/02/17 00:14:38;;;;;;;1.13;0.73;;;22.10;53.40;;;;;;6148457;23;20376;-83
2022/02/17 00:17:08;;;;;;;0.80;0.60;;;22.20;53.50;;;;;;6123316;23;20397;-83
2022/02/17 00:20:08;;;;;;;1.10;0.90;;;22.20;53.40;;;;;;6148036;23;20381;-83
2022/02/17 00:23:03;;;;;;;0.90;0.60;;;22.20;53.40;;;;;;6105324;23;20386;-83
2022/02/17 00:25:57;;;;;;;0.87;0.70;;;22.10;53.30;;;;;;6122498;23;20416;-83
2022/02/17 00:28:41;;;;;;;1.00;0.70;;;22.10;53.40;;;;;;6149550;23;20409;-83
2022/02/17 00:31:19;;;;;;;1.00;0.73;;;22.10;53.40;;;;;;6123899;23;20389;-83
2022/02/17 00:34:08;;;;;;;1.30;0.70;;;22.10;53.50;;;;;;6124368;23;20847;-83
2022/02/17 00:41:02;;;;;;;;;;;;;;;;;;;;;
2022/02/17 00:47:12;;;;;;;1.23;0.60;;;22.10;53.50;;;;;;5868184;24;20369;-83
2022/02/17 01:00:26;;;;;;;0.90;0.60;;;22.10;53.50;;;;;;5813260;24;20374;-85
2022/02/17 01:06:37;;;;;;;;;;;;;;;;;;;;;
2022/02/17 01:12:45;;;;;;;1.10;0.70;;;22.10;53.50;;;;;;5738879;24;20370;-85
2022/02/17 01:18:23;;;;;;;1.20;0.73;;;22.10;53.60;;;;;;5718744;25;21081;-85
2022/02/17 01:20:57;;;;;;;1.10;0.90;;;22.10;53.70;;;;;;5773371;24;20449;-85
2022/02/17 01:23:29;;;;;;;0.90;0.60;;;22.10;53.50;;;;;;5777545;24;20399;-84
2022/02/17 01:29:12;;;;;;;1.00;0.80;;;22.10;53.50;;;;;;5778066;24;20889;-85
2022/02/17 01:32:05;;;;;;;1.00;0.80;;;22.10;53.50;;;;;;5758019;24;20413;-85
2022/02/17 01:34:57;;;;;;;1.10;0.77;;;22.10;53.50;;;;;;5850852;24;20686;-85
2022/02/17 01:38:22;;;;;;;;;;;;;;;;;;;;;
2022/02/17 01:40:57;;;;;;;0.80;0.60;;;22.10;53.50;;;;;;5996904;24;20385;-85
2022/02/17 01:43:39;;;;;;;;;;;;;;;;;;;;;
2022/02/17 01:46:31;;;;;;;0.90;0.60;;;22.10;53.50;;;;;;6090010;23;20369;-85
2022/02/17 01:49:01;;;;;;;0.80;0.60;;;22.10;53.50;;;;;;6134340;23;20424;-86
2022/02/17 01:52:08;;;;;;;1.10;0.70;;;22.10;53.50;;;;;;6117690;23;20392;-86
2022/02/17 01:55:13;;;;;;;1.37;0.80;;;22.10;53.50;;;;;;6116312;23;20456;-86
2022/02/17 01:58:00;;;;;;;;;;;;;;;;;;;;;
2022/02/17 02:00:42;;;;;;;2.00;0.70;;;22.10;53.50;;;;;;6142486;23;20381;-87
2022/02/17 02:03:24;;;;;;;1.00;0.90;;;22.10;53.50;;;;;;6116367;23;20389;-86
2022/02/17 02:05:56;;;;;;;1.00;0.70;;;22.10;53.50;;;;;;6116954;23;20395;-86
2022/02/17 02:08:49;;;;;;;1.47;0.70;;;22.10;53.50;;;;;;6117465;23;20424;-86
2022/02/17 02:11:26;;;;;;;0.90;0.63;;;22.10;53.50;;;;;;6116632;23;20381;-86
2022/02/17 02:13:59;;;;;;;1.07;0.80;;;22.10;53.50;;;;;;6115733;23;20381;-87
2022/02/17 02:17:29;;;;;;;1.57;0.70;;;22.10;53.50;;;;;;6117021;23;20520;-86
2022/02/17 02:24:06;;;;;;;;;;;;;;;;;;;;;
2022/02/17 02:26:38;;;;;;;1.57;0.70;;;22.00;53.40;;;;;;6144642;23;20345;-87
2022/02/17 02:29:31;;;;;;;1.17;1.00;;;22.00;53.40;;;;;;6126750;23;20487;-85
2022/02/17 02:32:23;;;;;;;1.00;0.70;;;22.00;53.40;;;;;;6103060;23;20383;-85
2022/02/17 02:35:01;;;;;;;1.07;0.63;;;22.00;53.40;;;;;;6088488;23;20373;-85
2022/02/17 02:38:01;;;;;;;0.90;0.60;;;22.00;53.40;;;;;;6082366;23;20466;-85
2022/02/17 02:40:59;;;;;;;1.40;1.07;;;22.00;53.40;;;;;;6150361;23;20387;-85
2022/02/17 02:48:00;;;;;;;0.80;0.60;;;22.00;53.40;;;;;;6149078;23;20345;-85
2022/02/17 02:51:02;;;;;;;1.00;0.60;;;22.00;53.40;;;;;;5997185;24;20393;-85
2022/02/17 02:53:40;;;;;;;1.10;0.70;;;22.00;53.40;;;;;;5995357;24;20876;-85
2022/02/17 02:56:40;;;;;;;;;;;;;;;;;;;;;
2022/02/17 02:59:42;;;;;;;;;;;;;;;;;;;;;
2022/02/17 03:02:48;;;;;;;1.60;0.70;;;22.00;53.50;;;;;;5996974;24;20389;-85
2022/02/17 03:05:39;;;;;;;1.07;0.80;;;22.00;53.40;;;;;;5990253;24;20480;-85
2022/02/17 03:08:26;;;;;;;;;;;;;;;;;;;;;
2022/02/17 03:11:04;;;;;;;0.80;0.67;;;22.00;53.40;;;;;;5994536;24;20394;-85
2022/02/17 03:13:45;;;;;;;0.90;0.60;;;22.00;54.00;;;;;;5974006;24;20377;-85
2022/02/17 03:16:38;;;;;;;1.10;0.70;;;22.00;53.40;;;;;;5997201;24;20393;-85
2022/02/17 03:19:30;;;;;;;0.80;0.60;;;22.00;53.40;;;;;;5974854;24;20397;-85
2022/02/17 03:22:12;;;;;;;0.90;0.70;;;22.00;53.40;;;;;;6084962;23;20387;-85
2022/02/17 03:24:59;;;;;;;0.80;0.60;;;22.00;53.40;;;;;;6119619;23;20824;-85
2022/02/17 03:27:40;;;;;;;0.83;0.60;;;22.00;53.40;;;;;;6117065;23;20412;-85
2022/02/17 03:33:47;;;;;;;1.00;0.70;;;22.00;53.40;;;;;;6033605;23;20380;-85
2022/02/17 03:50:27;;;;;;;0.87;0.70;;;21.90;53.50;;;;;;5945034;24;20367;-84
2022/02/17 03:53:14;;;;;;;0.80;0.60;;;21.90;53.50;;;;;;5936536;24;20552;-85
2022/02/17 03:55:48;;;;;;;1.20;0.60;;;21.90;53.50;;;;;;5891664;24;20422;-85
2022/02/17 04:01:32;;;;;;;1.00;0.70;;;21.90;53.50;;;;;;5913634;24;20359;-85
2022/02/17 04:04:39;;;;;;;1.07;0.80;;;21.90;53.50;;;;;;5940755;24;20477;-85
2022/02/17 04:07:26;;;;;;;1.10;0.70;;;21.90;53.40;;;;;;5950757;24;20397;-85
2022/02/17 04:09:59;;;;;;;0.90;0.63;;;21.90;53.40;;;;;;5972950;24;20441;-85
2022/02/17 04:12:35;;;;;;;0.80;0.70;;;21.90;53.40;;;;;;5995718;24;20501;-85
2022/02/17 04:15:22;;;;;;;0.90;0.60;;;21.90;53.40;;;;;;5972701;24;20483;-85
2022/02/17 04:18:05;;;;;;;0.90;0.60;;;21.90;53.40;;;;;;5972978;24;20401;-85
2022/02/17 04:20:51;;;;;;;0.80;0.60;;;22.00;53.50;;;;;;5973312;24;20389;-85
2022/02/17 04:23:30;;;;;;;0.80;0.60;;;21.90;53.40;;;;;;6014860;23;20408;-86
2022/02/17 04:26:12;;;;;;;1.87;0.70;;;22.00;53.50;;;;;;6116422;23;20369;-85
2022/02/17 04:28:57;;;;;;;0.80;0.60;;;22.00;53.50;;;;;;6116229;23;20421;-85
2022/02/17 04:32:21;;;;;;;0.97;0.60;;;21.90;53.40;;;;;;6116164;23;20381;-85
2022/02/17 04:34:42;;;;;;;;;;;;;;;;;;;;;
2022/02/17 04:37:37;;;;;;;0.80;0.57;;;22.00;53.40;;;;;;6142663;23;20353;-84
2022/02/17 04:43:11;;;;;;;0.80;0.60;;;21.90;53.40;;;;;;6134244;23;20473;-84
2022/02/17 04:46:02;;;;;;;0.90;0.60;;;21.90;53.40;;;;;;6116363;23;20449;-85
2022/02/17 04:48:45;;;;;;;;;;;;;;;;;;;;;
2022/02/17 04:51:29;;;;;;;0.90;0.60;;;21.90;53.40;;;;;;6142385;23;20392;-85
2022/02/17 04:54:27;;;;;;;0.90;0.63;;;21.90;53.40;;;;;;6116313;23;20377;-85
2022/02/17 04:57:00;;;;;;;0.80;0.60;;;22.00;53.50;;;;;;6116056;23;20408;-85
2022/02/17 05:03:11;;;;;;;0.90;0.60;;;21.90;53.40;;;;;;6141644;23;20345;-86
2022/02/17 05:05:49;;;;;;;0.90;0.60;;;21.90;53.40;;;;;;6115681;23;20907;-86
2022/02/17 05:08:21;;;;;;;0.90;0.60;;;21.90;53.40;;;;;;6141316;23;20409;-86
2022/02/17 05:10:57;;;;;;;0.90;0.60;;;21.90;53.50;;;;;;6116940;23;20528;-86
2022/02/17 05:13:44;;;;;;;1.20;0.63;;;21.90;53.50;;;;;;6118809;23;20408;-86
2022/02/17 05:16:35;;;;;;;1.30;0.70;;;21.90;53.40;;;;;;6144866;23;20479;-86
2022/02/17 05:19:58;;;;;;;;;;;;;;;;;;;;;
2022/02/17 05:29:34;;;;;;;0.90;0.60;;;21.90;53.40;;;;;;6001690;23;20521;-87
2022/02/17 05:35:52;;;;;;;;;;;;;;;;;;;;;
2022/02/17 05:38:34;;;;;;;0.90;0.70;;;21.80;53.40;;;;;;5919756;24;20371;-87
2022/02/17 06:31:04;;;;;;;1.00;0.70;;;21.80;53.80;;;;;;5859889;24;20409;-86
2022/02/17 12:16:54;;;;;;;;;;;;;;;;;;;;;
2022/02/17 19:27:57;;;;;;;1.80;1.13;;;22.90;54.20;;;;;;5941920;23;20370;-83
2022/02/17 19:41:05;;;;;;;2.20;1.13;;;22.90;54.20;;;;;;5932598;24;20390;-83
2022/02/17 19:44:09;;;;;;;2.47;1.37;;;22.90;54.30;;;;;;5982653;23;20396;-82
2022/02/17 19:51:25;;;;;;;3.00;1.33;;;22.90;54.30;;;;;;5914040;24;20443;-82
2022/02/17 19:57:16;;;;;;;2.53;1.50;;;22.90;54.30;;;;;;5847245;24;20474;-82
2022/02/17 20:00:07;;;;;;;;;;;;;;;;;;;;;
2022/02/17 20:03:04;;;;;;;;;;;;;;;;;;;;;
2022/02/17 20:15:11;;;;;;;2.53;1.20;;;22.80;54.20;;;;;;6178403;23;20455;-81
2022/02/17 20:21:43;;;;;;;2.00;1.10;;;22.80;54.20;;;;;;6094266;23;20418;-80
2022/02/17 20:24:17;;;;;;;2.40;1.43;;;22.80;54.20;;;;;;6089347;23;20805;-82
2022/02/17 20:26:45;;;;;;;1.97;1.37;;;22.80;54.20;;;;;;6062006;23;20418;-85
2022/02/17 20:29:27;;;;;;;4.73;2.20;;;22.80;54.20;;;;;;6062978;23;20599;-82
2022/02/17 20:31:57;;;;;;;3.77;1.53;;;22.80;54.20;;;;;;6056373;23;20399;-80
2022/02/17 20:34:27;;;;;;;3.07;1.60;;;22.80;54.20;;;;;;6093476;23;20355;-83
2022/02/17 20:37:09;;;;;;;2.37;1.50;;;22.80;54.10;;;;;;6069533;23;20375;-80
2022/02/17 20:42:40;;;;;;;3.13;1.80;;;22.80;54.10;;;;;;6037940;23;20419;-80
2022/02/17 20:54:18;;;;;;;2.00;1.27;;;22.80;54.10;;;;;;6094780;23;20381;-80
2022/02/17 20:56:48;;;;;;;3.17;1.27;;;22.80;54.10;;;;;;6089816;23;20396;-80
2022/02/17 20:59:17;;;;;;;1.47;0.93;;;22.80;54.20;;;;;;6122887;23;20445;-80
2022/02/17 21:01:45;;;;;;;3.53;1.40;;;22.80;54.20;;;;;;6097661;23;20422;-80
2022/02/17 21:04:19;;;;;;;2.60;1.23;;;22.80;54.10;;;;;;6098126;23;20414;-80
2022/02/17 21:06:48;;;;;;;2.50;1.53;;;22.80;54.10;;;;;;6121875;23;20378;-80
2022/02/17 21:09:16;;;;;;;2.70;1.20;;;22.80;54.60;;;;;;6121369;23;20361;-80
2022/02/17 21:11:50;;;;;;;1.90;1.27;;;22.80;54.10;;;;;;6121907;23;20378;-80
2022/02/17 21:17:41;;;;;;;2.00;1.30;;;22.80;54.10;;;;;;6120192;23;20338;-80
2022/02/17 21:20:08;;;;;;;2.63;1.60;;;22.70;54.00;;;;;;6095368;23;20410;-80
2022/02/17 21:22:38;;;;;;;3.57;1.80;;;22.70;54.00;;;;;;6120409;23;20480;-80
2022/02/17 21:25:13;;;;;;;1.80;1.20;;;22.70;54.00;;;;;;6095662;23;20370;-81
2022/02/17 21:27:39;;;;;;;2.50;1.20;;;22.80;54.10;;;;;;6096285;23;20377;-80
2022/02/17 21:30:06;;;;;;;4.20;1.40;;;22.70;54.00;;;;;;6133372;23;20400;-80
2022/02/17 21:32:32;;;;;;;3.00;1.47;;;22.70;54.00;;;;;;6181355;23;20396;-80
2022/02/17 21:35:02;;;;;;;2.33;1.30;;;22.70;54.00;;;;;;6204885;23;20388;-81
2022/02/17 21:37:37;;;;;;;1.67;1.03;;;22.80;54.10;;;;;;6181710;23;20371;-80
2022/02/17 21:40:04;;;;;;;1.80;1.17;;;22.80;54.10;;;;;;6179541;23;20447;-80
2022/02/17 21:42:33;;;;;;;2.50;1.33;;;22.70;54.00;;;;;;6156222;23;20400;-80
2022/02/17 21:45:02;;;;;;;3.20;1.40;;;22.70;54.00;;;;;;6155511;23;20408;-81
2022/02/17 21:47:34;;;;;;;3.43;1.63;;;22.70;54.00;;;;;;6180776;23;20395;-80
2022/02/17 21:50:00;;;;;;;2.87;1.30;;;22.70;54.00;;;;;;6181213;23;20383;-80
2022/02/17 21:52:30;;;;;;;2.70;1.40;;;22.70;54.00;;;;;;6157630;23;20379;-80
2022/02/17 21:55:01;;;;;;;2.00;1.13;;;22.70;54.00;;;;;;6182249;23;20387;-80
2022/02/17 21:57:30;;;;;;;2.60;1.13;;;22.70;54.00;;;;;;6133693;23;20380;-80
2022/02/17 21:59:56;;;;;;;2.70;1.70;;;22.70;54.00;;;;;;6209108;23;20407;-80
2022/02/17 22:02:22;;;;;;;2.60;1.40;;;22.70;54.00;;;;;;6184658;23;20431;-81
2022/02/17 22:04:48;;;;;;;2.73;1.20;;;22.70;54.00;;;;;;6183189;23;20152;-82
2022/02/17 22:07:20;;;;;;;2.93;1.40;;;22.70;54.00;;;;;;6183172;23;20451;-82
2022/02/17 22:09:47;;;;;;;1.40;1.00;;;22.70;54.00;;;;;;6184103;23;20356;-81
2022/02/17 22:12:15;;;;;;;1.97;1.10;;;22.70;54.00;;;;;;6158227;23;20395;-81
2022/02/17 22:14:43;;;;;;;1.60;1.03;;;22.70;54.00;;;;;;6182532;23;20408;-81
2022/02/17 22:17:25;;;;;;;5.93;2.03;;;22.70;54.00;;;;;;6206817;23;20395;-81
2022/02/17 22:19:52;;;;;;;2.97;1.67;;;22.70;54.00;;;;;;6183201;23;20455;-81
2022/02/17 22:22:19;;;;;;;2.30;1.20;;;22.70;54.00;;;;;;6182718;23;20407;-81
2022/02/17 22:24:45;;;;;;;3.63;1.33;;;22.70;54.00;;;;;;6182522;23;20344;-81
2022/02/17 22:27:13;;;;;;;4.83;1.40;;;22.70;54.00;;;;;;6205898;23;20408;-81
2022/02/17 22:29:49;;;;;;;2.53;1.10;;;22.70;54.00;;;;;;6182967;23;20387;-80
2022/02/17 22:32:21;;;;;;;1.47;1.13;;;22.70;54.00;;;;;;6134227;23;20376;-80
2022/02/17 22:34:53;;;;;;;1.47;1.27;;;22.70;54.00;;;;;;6181494;23;20383;-81
2022/02/17 22:37:26;;;;;;;3.43;1.10;;;22.70;54.00;;;;;;6183206;23;20399;-80
2022/02/17 22:40:15;;;;;;;4.53;1.10;;;22.70;54.00;;;;;;6153148;23;20373;-81
2022/02/17 22:42:41;;;;;;;1.50;1.13;;;22.70;54.00;;;;;;6151200;23;20460;-82
2022/02/17 22:45:07;;;;;;;4.93;1.23;;;22.70;54.00;;;;;;6124569;23;20388;-83
2022/02/17 22:47:36;;;;;;;1.53;1.00;;;22.70;54.00;;;;;;6150227;23;20384;-82
2022/02/17 22:50:02;;;;;;;2.70;1.47;;;22.70;54.00;;;;;;6147562;23;20533;-83
2022/02/17 22:52:31;;;;;;;2.20;1.07;;;22.70;54.00;;;;;;6125045;23;20384;-82
2022/02/17 22:55:01;;;;;;;2.37;1.30;;;22.70;54.00;;;;;;6124513;23;20409;-82
2022/02/17 22:57:30;;;;;;;3.20;1.47;;;22.70;54.00;;;;;;6124756;23;20405;-82
2022/02/17 23:00:02;;;;;;;1.83;1.10;;;22.70;54.00;;;;;;6125095;23;20504;-83
2022/02/17 23:02:36;;;;;;;1.87;1.17;;;22.70;54.00;;;;;;6102355;23;20405;-82
2022/02/17 23:05:02;;;;;;;2.80;1.50;;;22.70;54.00;;;;;;6125010;23;20457;-81
2022/02/17 23:07:31;;;;;;;1.90;1.03;;;22.70;54.00;;;;;;6148918;23;20416;-82
2022/02/17 23:12:47;;;;;;;1.30;0.83;;;22.70;54.00;;;;;;6099143;23;20377;-82
2022/02/17 23:20:48;;;;;;;3.30;1.10;;;22.70;54.00;;;;;;6180544;23;20392;-82
2022/02/17 23:23:17;;;;;;;3.00;1.20;;;22.70;54.00;;;;;;6180106;23;20423;-81
2022/02/17 23:25:43;;;;;;;1.53;1.20;;;22.70;54.00;;;;;;6180259;23;20360;-82
2022/02/17 23:28:11;;;;;;;1.30;1.07;;;22.70;54.00;;;;;;6180610;23;20391;-82
2022/02/17 23:30:39;;;;;;;1.37;0.90;;;22.70;54.00;;;;;;6155800;23;20400;-82
2022/02/17 23:33:20;;;;;;;3.20;1.00;;;22.70;54.00;;;;;;6131512;23;20395;-83
2022/02/17 23:35:50;;;;;;;1.60;1.10;;;22.70;54.00;;;;;;6163534;23;20384;-83
2022/02/17 23:38:20;;;;;;;1.37;1.00;;;22.70;54.00;;;;;;6180869;23;20486;-84
2022/02/17 23:40:50;;;;;;;1.30;1.03;;;22.70;54.00;;;;;;6181359;23;20691;-82
2022/02/17 23:43:20;;;;;;;1.40;1.20;;;22.70;54.00;;;;;;6181364;23;20391;-82
2022/02/17 23:45:53;;;;;;;1.20;0.90;;;22.70;54.00;;;;;;6181595;23;20384;-82
2022/02/17 23:48:23;;;;;;;1.77;1.00;;;22.70;54.00;;;;;;6181926;23;20368;-82
2022/02/17 23:51:20;;;;;;;1.97;0.90;;;22.70;54.00;;;;;;6156353;23;20368;-82
2022/02/17 23:54:06;;;;;;;1.10;0.87;;;22.70;54.00;;;;;;6179980;23;20743;-80
2022/02/17 23:56:36;;;;;;;1.63;1.00;;;22.70;54.00;;;;;;6182123;23;20387;-80
2022/02/17 23:59:07;;;;;;;1.73;0.93;;;22.60;53.90;;;;;;6176582;23;20435;-80
